sensor_id;sensor_type;location;lat;lon;timestamp;P1;durP1;ratioP1;P2;durP2;ratioP2
20609;SDS011;10463;52.378;9.688;2022-10-31T00:01:52;3.17;;;2.77;;
20609;SDS011;10463;52.378;9.688;2022-10-31T00:04:38;3.80;;;3.30;;
20609;SDS011;10463;52.378;9.688;2022-10-31T00:07:23;4.67;;;4.17;;
20609;SDS011;10463;52.378;9.688;2022-10-31T00:10:08;4.33;;;3.70;;
20609;SDS011;10463;52.378;9.688;2022-10-31T00:12:53;4.13;;;3.63;;
20609;SDS011;10463;52.378;9.688;2022-10-31T00:15:39;5.00;;;4.10;;
20609;SDS011;10463;52.378;9.688;2022-10-31T00:18:24;4.60;;;4.10;;
20609;SDS011;10463;52.378;9.688;2022-10-31T00:21:10;4.47;;;3.77;;
20609;SDS011;10463;52.378;9.688;2022-10-31T00:23:56;5.70;;;4.23;;
20609;SDS011;10463;52.378;9.688;2022-10-31T00:26:41;4.70;;;4.20;;
20609;SDS011;10463;52.378;9.688;2022-10-31T00:29:25;5.10;;;4.60;;
20609;SDS011;10463;52.378;9.688;2022-10-31T00:32:10;6.23;;;4.87;;
20609;SDS011;10463;52.378;9.688;2022-10-31T00:34:54;6.13;;;4.23;;
20609;SDS011;10463;52.378;9.688;2022-10-31T00:37:40;6.27;;;4.77;;
20609;SDS011;10463;52.378;9.688;2022-10-31T00:40:25;4.17;;;3.77;;
20609;SDS011;10463;52.378;9.688;2022-10-31T00:43:11;5.27;;;3.97;;
20609;SDS011;10463;52.378;9.688;2022-10-31T00:45:56;5.37;;;4.70;;
20609;SDS011;10463;52.378;9.688;2022-10-31T00:48:42;5.73;;;4.20;;
20609;SDS011;10463;52.378;9.688;2022-10-31T00:51:27;4.83;;;4.40;;
20609;SDS011;10463;52.378;9.688;2022-10-31T00:54:13;4.40;;;4.00;;
20609;SDS011;10463;52.378;9.688;2022-10-31T00:56:57;5.70;;;4.63;;
20609;SDS011;10463;52.378;9.688;2022-10-31T00:59:42;7.10;;;5.53;;
20609;SDS011;10463;52.378;9.688;2022-10-31T01:02:27;6.27;;;5.37;;
20609;SDS011;10463;52.378;9.688;2022-10-31T01:05:12;8.13;;;4.60;;
20609;SDS011;10463;52.378;9.688;2022-10-31T01:07:57;6.30;;;5.40;;
20609;SDS011;10463;52.378;9.688;2022-10-31T01:10:45;8.90;;;5.23;;
20609;SDS011;10463;52.378;9.688;2022-10-31T01:13:30;6.33;;;4.63;;
20609;SDS011;10463;52.378;9.688;2022-10-31T01:16:16;5.40;;;4.90;;
20609;SDS011;10463;52.378;9.688;2022-10-31T01:19:02;6.30;;;5.00;;
20609;SDS011;10463;52.378;9.688;2022-10-31T01:21:47;6.20;;;5.60;;
20609;SDS011;10463;52.378;9.688;2022-10-31T01:24:31;5.60;;;4.43;;
20609;SDS011;10463;52.378;9.688;2022-10-31T01:27:17;7.40;;;5.93;;
20609;SDS011;10463;52.378;9.688;2022-10-31T01:30:05;7.73;;;5.90;;
20609;SDS011;10463;52.378;9.688;2022-10-31T01:32:50;6.83;;;5.37;;
20609;SDS011;10463;52.378;9.688;2022-10-31T01:35:35;6.10;;;4.90;;
20609;SDS011;10463;52.378;9.688;2022-10-31T01:38:19;11.77;;;5.93;;
20609;SDS011;10463;52.378;9.688;2022-10-31T01:41:04;7.93;;;5.40;;
20609;SDS011;10463;52.378;9.688;2022-10-31T01:43:53;8.37;;;5.73;;
20609;SDS011;10463;52.378;9.688;2022-10-31T01:46:41;5.80;;;4.77;;
20609;SDS011;10463;52.378;9.688;2022-10-31T01:49:31;6.73;;;5.23;;
20609;SDS011;10463;52.378;9.688;2022-10-31T01:52:19;5.00;;;4.50;;
20609;SDS011;10463;52.378;9.688;2022-10-31T01:55:09;6.27;;;5.00;;
20609;SDS011;10463;52.378;9.688;2022-10-31T01:58:01;6.50;;;5.23;;
20609;SDS011;10463;52.378;9.688;2022-10-31T02:00:53;6.63;;;5.17;;
20609;SDS011;10463;52.378;9.688;2022-10-31T02:03:40;9.63;;;4.97;;
20609;SDS011;10463;52.378;9.688;2022-10-31T02:06:29;6.70;;;4.70;;
20609;SDS011;10463;52.378;9.688;2022-10-31T02:09:19;6.70;;;5.00;;
20609;SDS011;10463;52.378;9.688;2022-10-31T02:12:09;6.13;;;4.90;;
20609;SDS011;10463;52.378;9.688;2022-10-31T02:14:55;8.47;;;4.87;;
20609;SDS011;10463;52.378;9.688;2022-10-31T02:17:41;6.20;;;5.53;;
20609;SDS011;10463;52.378;9.688;2022-10-31T02:20:29;6.83;;;5.70;;
20609;SDS011;10463;52.378;9.688;2022-10-31T02:24:00;6.97;;;4.67;;
20609;SDS011;10463;52.378;9.688;2022-10-31T02:27:26;6.10;;;4.90;;
20609;SDS011;10463;52.378;9.688;2022-10-31T02:30:28;5.83;;;5.13;;
20609;SDS011;10463;52.378;9.688;2022-10-31T02:33:24;4.97;;;4.30;;
20609;SDS011;10463;52.378;9.688;2022-10-31T02:36:16;6.80;;;5.40;;
20609;SDS011;10463;52.378;9.688;2022-10-31T02:39:08;6.53;;;4.90;;
20609;SDS011;10463;52.378;9.688;2022-10-31T02:42:03;5.23;;;4.73;;
20609;SDS011;10463;52.378;9.688;2022-10-31T02:44:58;5.77;;;4.20;;
20609;SDS011;10463;52.378;9.688;2022-10-31T02:47:49;6.77;;;4.70;;
20609;SDS011;10463;52.378;9.688;2022-10-31T02:50:40;5.33;;;4.83;;
20609;SDS011;10463;52.378;9.688;2022-10-31T02:53:31;7.00;;;4.90;;
20609;SDS011;10463;52.378;9.688;2022-10-31T02:56:18;5.60;;;4.33;;
20609;SDS011;10463;52.378;9.688;2022-10-31T02:59:03;6.83;;;4.87;;
20609;SDS011;10463;52.378;9.688;2022-10-31T03:01:56;5.60;;;4.50;;
20609;SDS011;10463;52.378;9.688;2022-10-31T03:05:23;8.17;;;4.87;;
20609;SDS011;10463;52.378;9.688;2022-10-31T03:08:22;6.63;;;4.17;;
20609;SDS011;10463;52.378;9.688;2022-10-31T03:11:12;5.17;;;4.07;;
20609;SDS011;10463;52.378;9.688;2022-10-31T03:14:00;6.07;;;4.57;;
20609;SDS011;10463;52.378;9.688;2022-10-31T03:16:53;4.50;;;3.73;;
20609;SDS011;10463;52.378;9.688;2022-10-31T03:19:43;5.40;;;4.13;;
20609;SDS011;10463;52.378;9.688;2022-10-31T03:22:32;4.67;;;3.70;;
20609;SDS011;10463;52.378;9.688;2022-10-31T03:25:19;5.70;;;4.40;;
20609;SDS011;10463;52.378;9.688;2022-10-31T03:28:05;5.97;;;4.60;;
20609;SDS011;10463;52.378;9.688;2022-10-31T03:30:51;4.43;;;4.03;;
20609;SDS011;10463;52.378;9.688;2022-10-31T03:33:38;5.93;;;4.00;;
20609;SDS011;10463;52.378;9.688;2022-10-31T03:36:24;6.33;;;4.27;;
20609;SDS011;10463;52.378;9.688;2022-10-31T03:39:12;5.70;;;4.37;;
20609;SDS011;10463;52.378;9.688;2022-10-31T03:42:05;6.50;;;4.50;;
20609;SDS011;10463;52.378;9.688;2022-10-31T03:44:55;5.67;;;4.70;;
20609;SDS011;10463;52.378;9.688;2022-10-31T03:47:45;5.30;;;3.87;;
20609;SDS011;10463;52.378;9.688;2022-10-31T03:50:47;6.53;;;4.37;;
20609;SDS011;10463;52.378;9.688;2022-10-31T03:53:39;5.77;;;4.90;;
20609;SDS011;10463;52.378;9.688;2022-10-31T03:56:34;6.47;;;4.40;;
20609;SDS011;10463;52.378;9.688;2022-10-31T03:59:26;7.07;;;4.77;;
20609;SDS011;10463;52.378;9.688;2022-10-31T04:02:19;6.40;;;4.50;;
20609;SDS011;10463;52.378;9.688;2022-10-31T04:05:08;4.73;;;4.20;;
20609;SDS011;10463;52.378;9.688;2022-10-31T04:07:55;7.30;;;5.23;;
20609;SDS011;10463;52.378;9.688;2022-10-31T04:10:42;5.17;;;4.63;;
20609;SDS011;10463;52.378;9.688;2022-10-31T04:13:32;5.30;;;4.80;;
20609;SDS011;10463;52.378;9.688;2022-10-31T04:16:27;5.10;;;4.20;;
20609;SDS011;10463;52.378;9.688;2022-10-31T04:19:13;6.83;;;4.17;;
20609;SDS011;10463;52.378;9.688;2022-10-31T04:21:59;3.90;;;3.50;;
20609;SDS011;10463;52.378;9.688;2022-10-31T04:24:44;5.33;;;4.77;;
20609;SDS011;10463;52.378;9.688;2022-10-31T04:27:31;5.23;;;3.97;;
20609;SDS011;10463;52.378;9.688;2022-10-31T04:30:16;4.80;;;4.00;;
20609;SDS011;10463;52.378;9.688;2022-10-31T04:33:02;4.30;;;3.70;;
20609;SDS011;10463;52.378;9.688;2022-10-31T04:35:48;4.77;;;3.70;;
20609;SDS011;10463;52.378;9.688;2022-10-31T04:38:33;6.40;;;4.13;;
20609;SDS011;10463;52.378;9.688;2022-10-31T04:41:18;5.00;;;4.30;;
20609;SDS011;10463;52.378;9.688;2022-10-31T04:44:10;5.33;;;3.67;;
20609;SDS011;10463;52.378;9.688;2022-10-31T04:46:55;5.03;;;3.83;;
20609;SDS011;10463;52.378;9.688;2022-10-31T04:49:42;6.60;;;4.10;;
20609;SDS011;10463;52.378;9.688;2022-10-31T04:52:29;5.07;;;4.00;;
20609;SDS011;10463;52.378;9.688;2022-10-31T04:55:14;4.73;;;4.23;;
20609;SDS011;10463;52.378;9.688;2022-10-31T04:58:18;4.37;;;3.83;;
20609;SDS011;10463;52.378;9.688;2022-10-31T05:01:03;6.03;;;3.97;;
20609;SDS011;10463;52.378;9.688;2022-10-31T05:03:47;4.73;;;3.77;;
20609;SDS011;10463;52.378;9.688;2022-10-31T05:06:34;4.80;;;4.17;;
20609;SDS011;10463;52.378;9.688;2022-10-31T05:09:18;5.13;;;4.60;;
20609;SDS011;10463;52.378;9.688;2022-10-31T05:12:04;5.30;;;4.50;;
20609;SDS011;10463;52.378;9.688;2022-10-31T05:15:09;4.70;;;3.53;;
20609;SDS011;10463;52.378;9.688;2022-10-31T05:18:13;4.13;;;3.70;;
20609;SDS011;10463;52.378;9.688;2022-10-31T05:21:10;5.83;;;4.07;;
20609;SDS011;10463;52.378;9.688;2022-10-31T05:24:02;10.27;;;3.90;;
20609;SDS011;10463;52.378;9.688;2022-10-31T05:26:49;5.40;;;3.57;;
20609;SDS011;10463;52.378;9.688;2022-10-31T05:29:34;5.83;;;3.77;;
20609;SDS011;10463;52.378;9.688;2022-10-31T05:32:21;5.30;;;3.70;;
20609;SDS011;10463;52.378;9.688;2022-10-31T05:35:26;5.10;;;4.17;;
20609;SDS011;10463;52.378;9.688;2022-10-31T05:38:30;6.37;;;5.77;;
20609;SDS011;10463;52.378;9.688;2022-10-31T05:41:21;5.50;;;4.63;;
20609;SDS011;10463;52.378;9.688;2022-10-31T05:44:06;6.77;;;4.30;;
20609;SDS011;10463;52.378;9.688;2022-10-31T05:47:02;5.13;;;4.20;;
20609;SDS011;10463;52.378;9.688;2022-10-31T05:50:16;5.30;;;4.00;;
20609;SDS011;10463;52.378;9.688;2022-10-31T05:53:15;4.13;;;3.50;;
20609;SDS011;10463;52.378;9.688;2022-10-31T05:56:01;7.03;;;4.50;;
20609;SDS011;10463;52.378;9.688;2022-10-31T05:58:48;4.70;;;3.80;;
20609;SDS011;10463;52.378;9.688;2022-10-31T06:01:33;5.63;;;3.93;;
20609;SDS011;10463;52.378;9.688;2022-10-31T06:04:23;4.50;;;3.40;;
20609;SDS011;10463;52.378;9.688;2022-10-31T06:07:08;5.30;;;4.23;;
20609;SDS011;10463;52.378;9.688;2022-10-31T06:09:55;5.07;;;3.90;;
20609;SDS011;10463;52.378;9.688;2022-10-31T06:12:41;5.20;;;4.03;;
20609;SDS011;10463;52.378;9.688;2022-10-31T06:15:53;6.67;;;4.10;;
20609;SDS011;10463;52.378;9.688;2022-10-31T06:18:41;5.80;;;4.43;;
20609;SDS011;10463;52.378;9.688;2022-10-31T06:21:27;5.23;;;4.27;;
20609;SDS011;10463;52.378;9.688;2022-10-31T06:24:12;4.80;;;3.63;;
20609;SDS011;10463;52.378;9.688;2022-10-31T06:27:23;3.90;;;3.40;;
20609;SDS011;10463;52.378;9.688;2022-10-31T06:30:09;4.70;;;3.80;;
20609;SDS011;10463;52.378;9.688;2022-10-31T06:33:02;5.20;;;3.73;;
20609;SDS011;10463;52.378;9.688;2022-10-31T06:35:47;4.30;;;3.90;;
20609;SDS011;10463;52.378;9.688;2022-10-31T06:38:33;5.47;;;4.07;;
20609;SDS011;10463;52.378;9.688;2022-10-31T06:41:18;4.40;;;3.60;;
20609;SDS011;10463;52.378;9.688;2022-10-31T06:44:06;5.50;;;4.30;;
20609;SDS011;10463;52.378;9.688;2022-10-31T06:47:21;5.53;;;3.97;;
20609;SDS011;10463;52.378;9.688;2022-10-31T06:50:24;5.93;;;3.90;;
20609;SDS011;10463;52.378;9.688;2022-10-31T06:53:10;5.43;;;4.87;;
20609;SDS011;10463;52.378;9.688;2022-10-31T06:55:55;4.80;;;3.83;;
20609;SDS011;10463;52.378;9.688;2022-10-31T06:58:41;5.20;;;4.00;;
20609;SDS011;10463;52.378;9.688;2022-10-31T07:01:27;4.93;;;4.00;;
20609;SDS011;10463;52.378;9.688;2022-10-31T07:04:12;4.10;;;3.70;;
20609;SDS011;10463;52.378;9.688;2022-10-31T07:06:58;5.30;;;4.73;;
20609;SDS011;10463;52.378;9.688;2022-10-31T07:09:43;5.13;;;4.17;;
20609;SDS011;10463;52.378;9.688;2022-10-31T07:12:29;5.63;;;4.50;;
20609;SDS011;10463;52.378;9.688;2022-10-31T07:15:16;5.23;;;3.80;;
20609;SDS011;10463;52.378;9.688;2022-10-31T07:18:02;5.13;;;3.73;;
20609;SDS011;10463;52.378;9.688;2022-10-31T07:20:48;4.63;;;4.10;;
20609;SDS011;10463;52.378;9.688;2022-10-31T07:23:34;5.40;;;4.40;;
20609;SDS011;10463;52.378;9.688;2022-10-31T07:26:38;6.33;;;3.70;;
20609;SDS011;10463;52.378;9.688;2022-10-31T07:29:23;4.73;;;3.23;;
20609;SDS011;10463;52.378;9.688;2022-10-31T07:32:08;5.00;;;3.80;;
20609;SDS011;10463;52.378;9.688;2022-10-31T07:34:56;5.43;;;4.20;;
20609;SDS011;10463;52.378;9.688;2022-10-31T07:37:47;5.37;;;4.17;;
20609;SDS011;10463;52.378;9.688;2022-10-31T07:40:35;3.93;;;3.47;;
20609;SDS011;10463;52.378;9.688;2022-10-31T07:43:21;4.93;;;4.03;;
20609;SDS011;10463;52.378;9.688;2022-10-31T07:46:27;4.70;;;4.13;;
20609;SDS011;10463;52.378;9.688;2022-10-31T07:49:48;4.30;;;3.90;;
20609;SDS011;10463;52.378;9.688;2022-10-31T07:52:59;4.87;;;3.97;;
20609;SDS011;10463;52.378;9.688;2022-10-31T07:56:07;4.17;;;3.67;;
20609;SDS011;10463;52.378;9.688;2022-10-31T07:58:52;4.40;;;3.90;;
20609;SDS011;10463;52.378;9.688;2022-10-31T08:01:37;5.50;;;4.03;;
20609;SDS011;10463;52.378;9.688;2022-10-31T08:04:41;4.63;;;4.13;;
20609;SDS011;10463;52.378;9.688;2022-10-31T08:07:52;5.03;;;4.63;;
20609;SDS011;10463;52.378;9.688;2022-10-31T08:10:39;7.87;;;5.07;;
20609;SDS011;10463;52.378;9.688;2022-10-31T08:13:27;7.03;;;5.47;;
20609;SDS011;10463;52.378;9.688;2022-10-31T08:16:12;5.93;;;4.67;;
20609;SDS011;10463;52.378;9.688;2022-10-31T08:19:07;4.37;;;3.97;;
20609;SDS011;10463;52.378;9.688;2022-10-31T08:21:56;5.00;;;4.10;;
20609;SDS011;10463;52.378;9.688;2022-10-31T08:24:42;4.00;;;3.60;;
20609;SDS011;10463;52.378;9.688;2022-10-31T08:27:27;4.53;;;3.97;;
20609;SDS011;10463;52.378;9.688;2022-10-31T08:30:16;4.53;;;3.90;;
20609;SDS011;10463;52.378;9.688;2022-10-31T08:33:13;5.20;;;3.97;;
20609;SDS011;10463;52.378;9.688;2022-10-31T08:36:19;4.30;;;3.40;;
20609;SDS011;10463;52.378;9.688;2022-10-31T08:39:10;4.00;;;3.67;;
20609;SDS011;10463;52.378;9.688;2022-10-31T08:41:56;4.67;;;4.17;;
20609;SDS011;10463;52.378;9.688;2022-10-31T08:44:41;4.70;;;3.70;;
20609;SDS011;10463;52.378;9.688;2022-10-31T08:47:27;4.33;;;3.93;;
20609;SDS011;10463;52.378;9.688;2022-10-31T08:50:13;4.50;;;4.10;;
20609;SDS011;10463;52.378;9.688;2022-10-31T08:53:02;4.63;;;4.23;;
20609;SDS011;10463;52.378;9.688;2022-10-31T08:55:48;5.43;;;4.80;;
20609;SDS011;10463;52.378;9.688;2022-10-31T08:58:43;7.77;;;5.50;;
20609;SDS011;10463;52.378;9.688;2022-10-31T09:01:29;5.00;;;4.50;;
20609;SDS011;10463;52.378;9.688;2022-10-31T09:04:15;5.10;;;4.60;;
20609;SDS011;10463;52.378;9.688;2022-10-31T09:07:00;5.00;;;4.33;;
20609;SDS011;10463;52.378;9.688;2022-10-31T09:09:45;5.50;;;4.90;;
20609;SDS011;10463;52.378;9.688;2022-10-31T09:12:30;7.43;;;4.80;;
20609;SDS011;10463;52.378;9.688;2022-10-31T09:15:35;4.80;;;4.30;;
20609;SDS011;10463;52.378;9.688;2022-10-31T09:18:36;4.93;;;4.33;;
20609;SDS011;10463;52.378;9.688;2022-10-31T09:21:22;6.57;;;4.33;;
20609;SDS011;10463;52.378;9.688;2022-10-31T09:24:07;6.20;;;4.93;;
20609;SDS011;10463;52.378;9.688;2022-10-31T09:26:52;5.53;;;4.93;;
20609;SDS011;10463;52.378;9.688;2022-10-31T09:29:44;6.10;;;4.90;;
20609;SDS011;10463;52.378;9.688;2022-10-31T09:32:30;5.77;;;4.63;;
20609;SDS011;10463;52.378;9.688;2022-10-31T09:35:15;6.33;;;4.43;;
20609;SDS011;10463;52.378;9.688;2022-10-31T09:38:04;4.63;;;4.00;;
20609;SDS011;10463;52.378;9.688;2022-10-31T09:40:55;5.93;;;4.70;;
20609;SDS011;10463;52.378;9.688;2022-10-31T09:44:05;6.63;;;4.67;;
20609;SDS011;10463;52.378;9.688;2022-10-31T09:47:02;4.70;;;4.07;;
20609;SDS011;10463;52.378;9.688;2022-10-31T09:50:06;5.20;;;4.00;;
20609;SDS011;10463;52.378;9.688;2022-10-31T09:53:05;6.70;;;5.13;;
20609;SDS011;10463;52.378;9.688;2022-10-31T09:55:54;5.00;;;3.63;;
20609;SDS011;10463;52.378;9.688;2022-10-31T09:58:42;4.97;;;4.50;;
20609;SDS011;10463;52.378;9.688;2022-10-31T10:01:34;4.80;;;3.67;;
20609;SDS011;10463;52.378;9.688;2022-10-31T10:04:34;5.93;;;3.90;;
20609;SDS011;10463;52.378;9.688;2022-10-31T10:07:43;4.83;;;3.70;;
20609;SDS011;10463;52.378;9.688;2022-10-31T10:10:57;3.80;;;3.40;;
20609;SDS011;10463;52.378;9.688;2022-10-31T10:14:20;4.87;;;3.67;;
20609;SDS011;10463;52.378;9.688;2022-10-31T10:17:24;4.93;;;3.63;;
20609;SDS011;10463;52.378;9.688;2022-10-31T10:20:22;6.30;;;4.10;;
20609;SDS011;10463;52.378;9.688;2022-10-31T10:23:23;5.43;;;3.60;;
20609;SDS011;10463;52.378;9.688;2022-10-31T10:26:21;5.67;;;3.70;;
20609;SDS011;10463;52.378;9.688;2022-10-31T10:29:21;5.90;;;3.67;;
20609;SDS011;10463;52.378;9.688;2022-10-31T10:32:20;4.37;;;3.30;;
20609;SDS011;10463;52.378;9.688;2022-10-31T10:35:14;4.23;;;3.40;;
20609;SDS011;10463;52.378;9.688;2022-10-31T10:38:10;7.40;;;3.27;;
20609;SDS011;10463;52.378;9.688;2022-10-31T10:41:03;4.70;;;3.87;;
20609;SDS011;10463;52.378;9.688;2022-10-31T10:43:55;4.40;;;3.43;;
20609;SDS011;10463;52.378;9.688;2022-10-31T10:46:41;4.07;;;3.67;;
20609;SDS011;10463;52.378;9.688;2022-10-31T10:49:49;5.30;;;3.47;;
20609;SDS011;10463;52.378;9.688;2022-10-31T10:52:42;3.83;;;3.13;;
20609;SDS011;10463;52.378;9.688;2022-10-31T10:55:44;4.53;;;3.23;;
20609;SDS011;10463;52.378;9.688;2022-10-31T10:58:35;5.90;;;3.87;;
20609;SDS011;10463;52.378;9.688;2022-10-31T11:01:22;4.93;;;3.97;;
20609;SDS011;10463;52.378;9.688;2022-10-31T11:04:22;4.90;;;4.27;;
20609;SDS011;10463;52.378;9.688;2022-10-31T11:07:11;3.87;;;3.13;;
20609;SDS011;10463;52.378;9.688;2022-10-31T11:10:03;5.20;;;3.70;;
20609;SDS011;10463;52.378;9.688;2022-10-31T11:13:02;3.77;;;3.30;;
20609;SDS011;10463;52.378;9.688;2022-10-31T11:15:53;3.37;;;3.07;;
20609;SDS011;10463;52.378;9.688;2022-10-31T11:18:45;3.70;;;2.80;;
20609;SDS011;10463;52.378;9.688;2022-10-31T11:21:31;3.00;;;2.70;;
20609;SDS011;10463;52.378;9.688;2022-10-31T11:24:19;3.60;;;3.10;;
20609;SDS011;10463;52.378;9.688;2022-10-31T11:27:13;2.93;;;2.63;;
20609;SDS011;10463;52.378;9.688;2022-10-31T11:30:06;4.03;;;3.43;;
20609;SDS011;10463;52.378;9.688;2022-10-31T11:32:53;5.93;;;3.00;;
20609;SDS011;10463;52.378;9.688;2022-10-31T11:35:40;3.60;;;3.07;;
20609;SDS011;10463;52.378;9.688;2022-10-31T11:38:29;4.17;;;3.30;;
20609;SDS011;10463;52.378;9.688;2022-10-31T11:41:19;3.80;;;2.90;;
20609;SDS011;10463;52.378;9.688;2022-10-31T11:44:13;4.80;;;3.00;;
20609;SDS011;10463;52.378;9.688;2022-10-31T11:47:02;3.80;;;2.93;;
20609;SDS011;10463;52.378;9.688;2022-10-31T11:49:49;3.93;;;3.03;;
20609;SDS011;10463;52.378;9.688;2022-10-31T11:52:37;4.10;;;2.90;;
20609;SDS011;10463;52.378;9.688;2022-10-31T11:55:34;3.57;;;2.80;;
20609;SDS011;10463;52.378;9.688;2022-10-31T11:58:22;4.10;;;3.50;;
20609;SDS011;10463;52.378;9.688;2022-10-31T12:01:22;3.60;;;3.20;;
20609;SDS011;10463;52.378;9.688;2022-10-31T12:04:10;3.23;;;2.90;;
20609;SDS011;10463;52.378;9.688;2022-10-31T12:06:57;3.70;;;2.87;;
20609;SDS011;10463;52.378;9.688;2022-10-31T12:09:43;2.90;;;2.53;;
20609;SDS011;10463;52.378;9.688;2022-10-31T12:12:40;4.23;;;2.97;;
20609;SDS011;10463;52.378;9.688;2022-10-31T12:15:36;4.10;;;2.90;;
20609;SDS011;10463;52.378;9.688;2022-10-31T12:18:37;3.87;;;3.33;;
20609;SDS011;10463;52.378;9.688;2022-10-31T12:21:41;3.97;;;3.10;;
20609;SDS011;10463;52.378;9.688;2022-10-31T12:24:52;3.47;;;2.43;;
20609;SDS011;10463;52.378;9.688;2022-10-31T12:28:00;3.23;;;2.80;;
20609;SDS011;10463;52.378;9.688;2022-10-31T12:31:12;3.53;;;2.40;;
20609;SDS011;10463;52.378;9.688;2022-10-31T12:34:22;3.37;;;2.90;;
20609;SDS011;10463;52.378;9.688;2022-10-31T12:37:24;3.83;;;2.73;;
20609;SDS011;10463;52.378;9.688;2022-10-31T12:40:30;3.27;;;2.30;;
20609;SDS011;10463;52.378;9.688;2022-10-31T12:43:36;3.33;;;2.60;;
20609;SDS011;10463;52.378;9.688;2022-10-31T12:46:37;3.30;;;2.83;;
20609;SDS011;10463;52.378;9.688;2022-10-31T12:49:49;2.57;;;2.30;;
20609;SDS011;10463;52.378;9.688;2022-10-31T12:52:50;2.80;;;2.23;;
20609;SDS011;10463;52.378;9.688;2022-10-31T12:55:51;2.83;;;2.60;;
20609;SDS011;10463;52.378;9.688;2022-10-31T12:58:45;3.23;;;2.77;;
20609;SDS011;10463;52.378;9.688;2022-10-31T13:01:35;2.50;;;2.03;;
20609;SDS011;10463;52.378;9.688;2022-10-31T13:04:35;3.40;;;2.43;;
20609;SDS011;10463;52.378;9.688;2022-10-31T13:07:28;2.57;;;2.23;;
20609;SDS011;10463;52.378;9.688;2022-10-31T13:10:20;2.70;;;2.17;;
20609;SDS011;10463;52.378;9.688;2022-10-31T13:13:14;2.40;;;2.10;;
20609;SDS011;10463;52.378;9.688;2022-10-31T13:16:05;2.27;;;2.00;;
20609;SDS011;10463;52.378;9.688;2022-10-31T13:18:57;2.23;;;1.83;;
20609;SDS011;10463;52.378;9.688;2022-10-31T13:21:51;3.70;;;2.50;;
20609;SDS011;10463;52.378;9.688;2022-10-31T13:24:43;2.37;;;2.03;;
20609;SDS011;10463;52.378;9.688;2022-10-31T13:27:36;1.93;;;1.60;;
20609;SDS011;10463;52.378;9.688;2022-10-31T13:30:31;2.30;;;2.00;;
20609;SDS011;10463;52.378;9.688;2022-10-31T13:33:22;2.60;;;2.30;;
20609;SDS011;10463;52.378;9.688;2022-10-31T13:36:19;2.57;;;2.27;;
20609;SDS011;10463;52.378;9.688;2022-10-31T13:39:17;2.60;;;1.80;;
20609;SDS011;10463;52.378;9.688;2022-10-31T13:42:13;3.83;;;2.07;;
20609;SDS011;10463;52.378;9.688;2022-10-31T13:45:14;2.00;;;1.80;;
20609;SDS011;10463;52.378;9.688;2022-10-31T13:48:17;2.33;;;1.77;;
20609;SDS011;10463;52.378;9.688;2022-10-31T13:51:06;2.33;;;2.03;;
20609;SDS011;10463;52.378;9.688;2022-10-31T13:53:59;2.13;;;1.50;;
20609;SDS011;10463;52.378;9.688;2022-10-31T13:56:48;2.23;;;2.03;;
20609;SDS011;10463;52.378;9.688;2022-10-31T13:59:35;2.73;;;2.00;;
20609;SDS011;10463;52.378;9.688;2022-10-31T14:02:25;2.60;;;1.73;;
20609;SDS011;10463;52.378;9.688;2022-10-31T14:05:21;3.40;;;2.20;;
20609;SDS011;10463;52.378;9.688;2022-10-31T14:08:19;2.63;;;1.80;;
20609;SDS011;10463;52.378;9.688;2022-10-31T14:11:07;2.70;;;2.20;;
20609;SDS011;10463;52.378;9.688;2022-10-31T14:13:53;2.33;;;1.80;;
20609;SDS011;10463;52.378;9.688;2022-10-31T14:16:42;2.27;;;1.87;;
20609;SDS011;10463;52.378;9.688;2022-10-31T14:19:29;2.43;;;1.67;;
20609;SDS011;10463;52.378;9.688;2022-10-31T14:22:20;2.20;;;1.70;;
20609;SDS011;10463;52.378;9.688;2022-10-31T14:28:32;2.37;;;1.83;;
20609;SDS011;10463;52.378;9.688;2022-10-31T14:31:34;2.23;;;1.83;;
20609;SDS011;10463;52.378;9.688;2022-10-31T14:34:23;2.17;;;1.60;;
20609;SDS011;10463;52.378;9.688;2022-10-31T14:37:42;3.27;;;1.60;;
20609;SDS011;10463;52.378;9.688;2022-10-31T14:40:49;2.70;;;1.90;;
20609;SDS011;10463;52.378;9.688;2022-10-31T14:44:16;3.10;;;2.30;;
20609;SDS011;10463;52.378;9.688;2022-10-31T14:47:27;2.07;;;1.87;;
20609;SDS011;10463;52.378;9.688;2022-10-31T14:50:34;1.83;;;1.40;;
20609;SDS011;10463;52.378;9.688;2022-10-31T14:53:30;2.20;;;1.77;;
20609;SDS011;10463;52.378;9.688;2022-10-31T14:56:24;1.97;;;1.70;;
20609;SDS011;10463;52.378;9.688;2022-10-31T14:59:12;2.10;;;1.50;;
20609;SDS011;10463;52.378;9.688;2022-10-31T15:02:09;3.40;;;1.63;;
20609;SDS011;10463;52.378;9.688;2022-10-31T15:04:57;2.30;;;1.60;;
20609;SDS011;10463;52.378;9.688;2022-10-31T15:07:49;1.90;;;1.40;;
20609;SDS011;10463;52.378;9.688;2022-10-31T15:10:37;2.13;;;1.70;;
20609;SDS011;10463;52.378;9.688;2022-10-31T15:13:22;2.73;;;1.80;;
20609;SDS011;10463;52.378;9.688;2022-10-31T15:16:07;2.20;;;1.73;;
20609;SDS011;10463;52.378;9.688;2022-10-31T15:18:56;2.30;;;1.70;;
20609;SDS011;10463;52.378;9.688;2022-10-31T15:21:43;2.57;;;1.90;;
20609;SDS011;10463;52.378;9.688;2022-10-31T15:24:33;2.20;;;1.50;;
20609;SDS011;10463;52.378;9.688;2022-10-31T15:27:21;2.60;;;1.90;;
20609;SDS011;10463;52.378;9.688;2022-10-31T15:30:19;2.50;;;2.00;;
20609;SDS011;10463;52.378;9.688;2022-10-31T15:33:18;3.00;;;1.60;;
20609;SDS011;10463;52.378;9.688;2022-10-31T15:36:06;2.40;;;1.80;;
20609;SDS011;10463;52.378;9.688;2022-10-31T15:39:02;3.67;;;1.53;;
20609;SDS011;10463;52.378;9.688;2022-10-31T15:41:49;2.53;;;1.73;;
20609;SDS011;10463;52.378;9.688;2022-10-31T15:44:37;2.67;;;1.90;;
20609;SDS011;10463;52.378;9.688;2022-10-31T15:47:26;2.70;;;1.80;;
20609;SDS011;10463;52.378;9.688;2022-10-31T15:50:19;3.20;;;1.70;;
20609;SDS011;10463;52.378;9.688;2022-10-31T15:53:15;3.33;;;1.97;;
20609;SDS011;10463;52.378;9.688;2022-10-31T15:56:04;2.33;;;2.00;;
20609;SDS011;10463;52.378;9.688;2022-10-31T15:58:52;2.03;;;1.70;;
20609;SDS011;10463;52.378;9.688;2022-10-31T16:01:39;3.23;;;2.00;;
20609;SDS011;10463;52.378;9.688;2022-10-31T16:04:24;2.03;;;1.50;;
20609;SDS011;10463;52.378;9.688;2022-10-31T16:07:13;2.50;;;1.93;;
20609;SDS011;10463;52.378;9.688;2022-10-31T16:10:00;2.40;;;1.70;;
20609;SDS011;10463;52.378;9.688;2022-10-31T16:12:47;2.37;;;2.07;;
20609;SDS011;10463;52.378;9.688;2022-10-31T16:15:32;2.97;;;1.83;;
20609;SDS011;10463;52.378;9.688;2022-10-31T16:18:21;2.40;;;1.80;;
20609;SDS011;10463;52.378;9.688;2022-10-31T16:21:06;2.77;;;2.10;;
20609;SDS011;10463;52.378;9.688;2022-10-31T16:23:55;2.77;;;1.70;;
20609;SDS011;10463;52.378;9.688;2022-10-31T16:26:47;2.40;;;1.47;;
20609;SDS011;10463;52.378;9.688;2022-10-31T16:29:34;4.00;;;2.50;;
20609;SDS011;10463;52.378;9.688;2022-10-31T16:32:28;3.13;;;2.17;;
20609;SDS011;10463;52.378;9.688;2022-10-31T16:35:27;3.83;;;2.47;;
20609;SDS011;10463;52.378;9.688;2022-10-31T16:38:16;2.43;;;1.73;;
20609;SDS011;10463;52.378;9.688;2022-10-31T16:41:01;3.40;;;1.93;;
20609;SDS011;10463;52.378;9.688;2022-10-31T16:43:46;2.60;;;1.87;;
20609;SDS011;10463;52.378;9.688;2022-10-31T16:46:31;2.67;;;2.33;;
20609;SDS011;10463;52.378;9.688;2022-10-31T16:49:16;3.00;;;1.87;;
20609;SDS011;10463;52.378;9.688;2022-10-31T16:52:04;3.27;;;1.63;;
20609;SDS011;10463;52.378;9.688;2022-10-31T16:54:49;2.70;;;1.80;;
20609;SDS011;10463;52.378;9.688;2022-10-31T16:57:34;2.17;;;1.83;;
20609;SDS011;10463;52.378;9.688;2022-10-31T17:00:21;2.40;;;1.90;;
20609;SDS011;10463;52.378;9.688;2022-10-31T17:03:07;2.60;;;1.80;;
20609;SDS011;10463;52.378;9.688;2022-10-31T17:05:53;3.00;;;2.00;;
20609;SDS011;10463;52.378;9.688;2022-10-31T17:08:42;3.13;;;2.17;;
20609;SDS011;10463;52.378;9.688;2022-10-31T17:11:27;2.70;;;1.93;;
20609;SDS011;10463;52.378;9.688;2022-10-31T17:14:13;2.40;;;2.10;;
20609;SDS011;10463;52.378;9.688;2022-10-31T17:17:02;2.60;;;1.80;;
20609;SDS011;10463;52.378;9.688;2022-10-31T17:19:47;2.93;;;1.73;;